sensor_id;sensor_type;location;lat;lon;timestamp;pressure;altitude;pressure_sealevel;temperature;humidity
13241;BME280;6687;47.790;7.322;2023-02-12T06:12:02;100924.09;;;0.52;81.44
13241;BME280;6687;47.790;7.322;2023-02-12T06:14:29;100930.53;;;0.94;80.80
13241;BME280;6687;47.790;7.322;2023-02-12T06:16:56;100933.28;;;0.73;80.91
13241;BME280;6687;47.790;7.322;2023-02-12T06:19:23;100932.19;;;0.58;80.96
13241;BME280;6687;47.790;7.322;2023-02-12T06:21:49;100920.88;;;0.54;81.39
13241;BME280;6687;47.790;7.322;2023-02-12T06:24:17;100922.88;;;0.82;81.26
13241;BME280;6687;47.790;7.322;2023-02-12T06:26:44;100927.09;;;0.93;80.06
13241;BME280;6687;47.790;7.322;2023-02-12T06:29:13;100928.88;;;0.83;79.92
13241;BME280;6687;47.790;7.322;2023-02-12T06:31:39;100934.19;;;0.97;79.92
13241;BME280;6687;47.790;7.322;2023-02-12T06:34:09;100927.75;;;1.14;79.50
13241;BME280;6687;47.790;7.322;2023-02-12T06:36:36;100937.97;;;1.03;79.16
13241;BME280;6687;47.790;7.322;2023-02-12T06:39:04;100941.06;;;1.10;79.44
13241;BME280;6687;47.790;7.322;2023-02-12T06:41:31;100931.44;;;0.83;78.99
13241;BME280;6687;47.790;7.322;2023-02-12T06:43:59;100936.09;;;0.88;79.63
13241;BME280;6687;47.790;7.322;2023-02-12T06:46:27;100939.09;;;0.94;79.13
13241;BME280;6687;47.790;7.322;2023-02-12T06:48:54;100929.06;;;1.21;78.91
13241;BME280;6687;47.790;7.322;2023-02-12T06:51:22;100940.59;;;0.57;79.71
13241;BME280;6687;47.790;7.322;2023-02-12T06:53:49;100933.28;;;0.62;80.35
13241;BME280;6687;47.790;7.322;2023-02-12T06:56:17;100933.75;;;0.91;79.15
13241;BME280;6687;47.790;7.322;2023-02-12T06:58:46;100928.19;;;0.85;80.55
13241;BME280;6687;47.790;7.322;2023-02-12T07:01:14;100934.19;;;0.97;79.33
13241;BME280;6687;47.790;7.322;2023-02-12T07:03:46;100943.50;;;0.85;79.95
13241;BME280;6687;47.790;7.322;2023-02-12T07:06:14;100936.84;;;0.87;78.99
13241;BME280;6687;47.790;7.322;2023-02-12T07:08:41;100952.56;;;0.46;79.75
13241;BME280;6687;47.790;7.322;2023-02-12T07:11:08;100948.16;;;0.91;80.01
13241;BME280;6687;47.790;7.322;2023-02-12T07:13:35;100953.56;;;1.43;80.81
13241;BME280;6687;47.790;7.322;2023-02-12T07:16:03;100955.28;;;1.18;80.06
13241;BME280;6687;47.790;7.322;2023-02-12T07:18:30;100958.38;;;0.79;80.07
13241;BME280;6687;47.790;7.322;2023-02-12T07:21:00;100962.59;;;0.90;80.69
13241;BME280;6687;47.790;7.322;2023-02-12T07:23:26;100961.72;;;0.78;81.28
13241;BME280;6687;47.790;7.322;2023-02-12T07:25:54;100960.81;;;0.77;81.91
13241;BME280;6687;47.790;7.322;2023-02-12T07:28:21;100961.94;;;0.81;81.76
13241;BME280;6687;47.790;7.322;2023-02-12T07:30:48;100968.13;;;0.73;82.15
13241;BME280;6687;47.790;7.322;2023-02-12T07:33:15;100963.28;;;0.99;81.58
13241;BME280;6687;47.790;7.322;2023-02-12T07:35:42;100972.56;;;1.23;81.28
13241;BME280;6687;47.790;7.322;2023-02-12T07:38:10;100975.25;;;1.24;81.79
13241;BME280;6687;47.790;7.322;2023-02-12T07:40:37;100966.03;;;1.26;81.09
13241;BME280;6687;47.790;7.322;2023-02-12T07:43:04;100967.91;;;1.41;81.36
13241;BME280;6687;47.790;7.322;2023-02-12T07:45:30;100966.56;;;1.46;81.30
13241;BME280;6687;47.790;7.322;2023-02-12T07:47:57;100974.69;;;1.05;82.63
13241;BME280;6687;47.790;7.322;2023-02-12T07:50:24;100977.94;;;1.14;83.22
13241;BME280;6687;47.790;7.322;2023-02-12T07:52:50;100970.34;;;1.27;82.66
13241;BME280;6687;47.790;7.322;2023-02-12T07:55:19;100975.69;;;1.30;82.64
13241;BME280;6687;47.790;7.322;2023-02-12T07:57:45;100967.72;;;1.26;83.16
13241;BME280;6687;47.790;7.322;2023-02-12T08:00:13;100975.78;;;1.44;82.75
13241;BME280;6687;47.790;7.322;2023-02-12T08:02:40;100975.13;;;1.34;82.75
13241;BME280;6687;47.790;7.322;2023-02-12T08:05:07;100977.75;;;1.59;82.22
13241;BME280;6687;47.790;7.322;2023-02-12T08:07:34;100973.63;;;1.73;81.13
13241;BME280;6687;47.790;7.322;2023-02-12T08:10:00;100981.44;;;1.51;81.71
13241;BME280;6687;47.790;7.322;2023-02-12T08:12:29;100981.19;;;1.60;81.79
13241;BME280;6687;47.790;7.322;2023-02-12T08:14:55;100975.69;;;1.30;82.48
13241;BME280;6687;47.790;7.322;2023-02-12T08:17:22;100975.00;;;1.45;82.72
13241;BME280;6687;47.790;7.322;2023-02-12T08:19:49;100973.28;;;1.57;82.66
13241;BME280;6687;47.790;7.322;2023-02-12T08:22:15;100978.34;;;1.44;83.02
13241;BME280;6687;47.790;7.322;2023-02-12T08:24:43;100973.28;;;1.57;82.67
13241;BME280;6687;47.790;7.322;2023-02-12T08:27:10;100981.88;;;1.46;83.04
13241;BME280;6687;47.790;7.322;2023-02-12T08:29:38;100977.41;;;1.55;82.80
13241;BME280;6687;47.790;7.322;2023-02-12T08:32:04;100979.28;;;1.69;82.76
13241;BME280;6687;47.790;7.322;2023-02-12T08:34:34;100981.19;;;1.60;82.41
13241;BME280;6687;47.790;7.322;2023-02-12T08:37:03;100983.16;;;1.76;81.97
13241;BME280;6687;47.790;7.322;2023-02-12T08:39:30;100991.81;;;1.78;82.43
13241;BME280;6687;47.790;7.322;2023-02-12T08:41:58;100988.06;;;1.61;82.83
13241;BME280;6687;47.790;7.322;2023-02-12T08:44:25;100983.56;;;1.82;82.50
13241;BME280;6687;47.790;7.322;2023-02-12T08:46:53;100980.47;;;1.74;83.07
13241;BME280;6687;47.790;7.322;2023-02-12T08:49:22;100977.22;;;1.89;82.50
13241;BME280;6687;47.790;7.322;2023-02-12T08:51:51;100985.97;;;1.92;82.47
13241;BME280;6687;47.790;7.322;2023-02-12T08:54:20;100984.69;;;1.86;82.49
13241;BME280;6687;47.790;7.322;2023-02-12T08:56:48;100986.63;;;1.65;84.27
13241;BME280;6687;47.790;7.322;2023-02-12T08:59:15;100984.75;;;1.62;84.82
13241;BME280;6687;47.790;7.322;2023-02-12T09:01:43;100985.75;;;2.01;83.64
13241;BME280;6687;47.790;7.322;2023-02-12T09:04:13;100983.31;;;1.91;83.41
13241;BME280;6687;47.790;7.322;2023-02-12T09:06:42;100985.53;;;1.98;83.63
13241;BME280;6687;47.790;7.322;2023-02-12T09:09:09;100984.47;;;1.83;84.44
13241;BME280;6687;47.790;7.322;2023-02-12T09:11:36;100978.78;;;1.87;84.45
13241;BME280;6687;47.790;7.322;2023-02-12T09:14:04;100977.69;;;1.83;85.37
13241;BME280;6687;47.790;7.322;2023-02-12T09:16:33;100979.16;;;1.79;85.52
13241;BME280;6687;47.790;7.322;2023-02-12T09:19:00;100971.34;;;1.90;85.57
13241;BME280;6687;47.790;7.322;2023-02-12T09:21:28;100978.19;;;1.91;85.39
13241;BME280;6687;47.790;7.322;2023-02-12T09:23:55;100972.41;;;2.05;85.47
13241;BME280;6687;47.790;7.322;2023-02-12T09:26:23;100969.03;;;2.06;85.03
13241;BME280;6687;47.790;7.322;2023-02-12T09:28:51;100969.78;;;1.92;86.39
13241;BME280;6687;47.790;7.322;2023-02-12T09:31:21;100972.97;;;2.01;86.62
13241;BME280;6687;47.790;7.322;2023-02-12T09:33:51;100969.56;;;2.14;85.84
13241;BME280;6687;47.790;7.322;2023-02-12T09:36:18;100973.00;;;2.14;86.01
13241;BME280;6687;47.790;7.322;2023-02-12T09:38:46;100965.72;;;2.07;86.75
13241;BME280;6687;47.790;7.322;2023-02-12T09:41:36;100960.00;;;1.86;88.22
13241;BME280;6687;47.790;7.322;2023-02-12T09:44:11;100959.50;;;2.04;87.96
13241;BME280;6687;47.790;7.322;2023-02-12T09:46:44;100966.13;;;2.13;87.76
13241;BME280;6687;47.790;7.322;2023-02-12T09:49:18;100959.06;;;2.23;87.00
13241;BME280;6687;47.790;7.322;2023-02-12T09:51:49;100964.69;;;2.30;86.47
13241;BME280;6687;47.790;7.322;2023-02-12T09:54:22;100951.56;;;2.12;87.54
13241;BME280;6687;47.790;7.322;2023-02-12T09:56:51;100950.78;;;2.13;88.04
13241;BME280;6687;47.790;7.322;2023-02-12T09:59:25;100953.81;;;2.33;88.23
13241;BME280;6687;47.790;7.322;2023-02-12T10:01:54;100953.38;;;2.27;88.50
13241;BME280;6687;47.790;7.322;2023-02-12T10:04:21;100944.72;;;2.25;88.67
13241;BME280;6687;47.790;7.322;2023-02-12T10:06:57;100942.03;;;2.62;88.54
13241;BME280;6687;47.790;7.322;2023-02-12T10:09:41;100946.72;;;2.42;88.04
13241;BME280;6687;47.790;7.322;2023-02-12T10:12:20;100942.88;;;2.35;89.59
13241;BME280;6687;47.790;7.322;2023-02-12T10:14:58;100951.47;;;2.49;89.62
13241;BME280;6687;47.790;7.322;2023-02-12T10:17:36;100943.41;;;2.43;90.46
13241;BME280;6687;47.790;7.322;2023-02-12T10:20:46;100935.91;;;2.46;90.51
13241;BME280;6687;47.790;7.322;2023-02-12T10:23:26;100938.53;;;2.34;90.78
13241;BME280;6687;47.790;7.322;2023-02-12T10:26:02;100932.97;;;2.53;90.55
13241;BME280;6687;47.790;7.322;2023-02-12T10:28:33;100926.91;;;2.65;90.02
13241;BME280;6687;47.790;7.322;2023-02-12T10:31:05;100933.16;;;2.56;90.68
13241;BME280;6687;47.790;7.322;2023-02-12T10:33:35;100939.47;;;2.48;92.56
13241;BME280;6687;47.790;7.322;2023-02-12T10:36:13;100932.78;;;2.50;93.05
13241;BME280;6687;47.790;7.322;2023-02-12T10:38:47;100929.44;;;2.51;92.11
13241;BME280;6687;47.790;7.322;2023-02-12T10:41:17;100927.56;;;2.62;91.94
13241;BME280;6687;47.790;7.322;2023-02-12T10:43:44;100929.56;;;2.79;91.18
13241;BME280;6687;47.790;7.322;2023-02-12T10:46:13;100924.72;;;2.84;93.46
13241;BME280;6687;47.790;7.322;2023-02-12T10:48:41;100927.91;;;2.67;93.02
13241;BME280;6687;47.790;7.322;2023-02-12T10:51:37;100916.09;;;2.69;93.25
13241;BME280;6687;47.790;7.322;2023-02-12T10:54:38;100907.31;;;2.65;93.42
13241;BME280;6687;47.790;7.322;2023-02-12T10:57:17;100909.97;;;2.67;93.63
13241;BME280;6687;47.790;7.322;2023-02-12T10:59:47;100910.84;;;2.67;94.15
13241;BME280;6687;47.790;7.322;2023-02-12T11:02:18;100897.19;;;2.67;92.99
13241;BME280;6687;47.790;7.322;2023-02-12T11:04:45;100897.78;;;2.63;92.82
13241;BME280;6687;47.790;7.322;2023-02-12T11:07:12;100900.31;;;2.76;94.34
13241;BME280;6687;47.790;7.322;2023-02-12T11:09:41;100898.44;;;2.60;93.86
13241;BME280;6687;47.790;7.322;2023-02-12T11:12:27;100893.44;;;2.75;94.30
13241;BME280;6687;47.790;7.322;2023-02-12T11:14:57;100883.59;;;2.81;93.33
13241;BME280;6687;47.790;7.322;2023-02-12T11:17:26;100887.53;;;2.89;93.78
13241;BME280;6687;47.790;7.322;2023-02-12T11:20:18;100880.06;;;2.79;93.87
13241;BME280;6687;47.790;7.322;2023-02-12T11:22:50;100880.81;;;2.78;94.58
13241;BME280;6687;47.790;7.322;2023-02-12T11:25:17;100880.03;;;3.06;95.25
13241;BME280;6687;47.790;7.322;2023-02-12T11:27:58;100878.66;;;2.84;94.85
13241;BME280;6687;47.790;7.322;2023-02-12T11:30:26;100870.00;;;2.95;94.48
13241;BME280;6687;47.790;7.322;2023-02-12T11:32:52;100875.31;;;2.85;94.59
13241;BME280;6687;47.790;7.322;2023-02-12T11:35:21;100869.34;;;3.26;95.32
13241;BME280;6687;47.790;7.322;2023-02-12T11:37:54;100862.09;;;2.92;93.80
13241;BME280;6687;47.790;7.322;2023-02-12T11:40:24;100860.09;;;3.28;94.40
13241;BME280;6687;47.790;7.322;2023-02-12T11:42:55;100863.63;;;3.30;96.21
13241;BME280;6687;47.790;7.322;2023-02-12T11:45:27;100857.94;;;3.08;95.83
13241;BME280;6687;47.790;7.322;2023-02-12T11:47:56;100853.16;;;3.41;96.67
13241;BME280;6687;47.790;7.322;2023-02-12T11:50:25;100857.50;;;2.87;95.29
13241;BME280;6687;47.790;7.322;2023-02-12T11:52:56;100855.66;;;3.54;97.24
13241;BME280;6687;47.790;7.322;2023-02-12T11:55:26;100853.72;;;3.08;95.48
13241;BME280;6687;47.790;7.322;2023-02-12T11:58:01;100851.00;;;3.33;97.02
13241;BME280;6687;47.790;7.322;2023-02-12T12:00:32;100845.38;;;3.39;97.27
13241;BME280;6687;47.790;7.322;2023-02-12T12:03:06;100842.16;;;3.28;97.05
13241;BME280;6687;47.790;7.322;2023-02-12T12:05:43;100842.19;;;3.43;97.35
13241;BME280;6687;47.790;7.322;2023-02-12T12:08:14;100835.69;;;3.48;98.02
13241;BME280;6687;47.790;7.322;2023-02-12T12:10:47;100835.50;;;4.03;98.05
13241;BME280;6687;47.790;7.322;2023-02-12T12:13:21;100823.72;;;3.77;97.84
13241;BME280;6687;47.790;7.322;2023-02-12T12:15:52;100824.06;;;3.68;97.63
13241;BME280;6687;47.790;7.322;2023-02-12T12:18:44;100817.88;;;3.79;98.38
13241;BME280;6687;47.790;7.322;2023-02-12T12:21:35;100817.19;;;3.97;98.39
13241;BME280;6687;47.790;7.322;2023-02-12T12:24:10;100815.41;;;4.26;99.22
13241;BME280;6687;47.790;7.322;2023-02-12T12:26:45;100812.34;;;4.16;98.39
13241;BME280;6687;47.790;7.322;2023-02-12T12:29:19;100809.94;;;4.34;98.50
13241;BME280;6687;47.790;7.322;2023-02-12T12:31:49;100807.53;;;4.52;98.69
13241;BME280;6687;47.790;7.322;2023-02-12T12:34:21;100806.63;;;4.83;98.53
13241;BME280;6687;47.790;7.322;2023-02-12T12:37:21;100798.94;;;4.83;99.33
13241;BME280;6687;47.790;7.322;2023-02-12T12:43:10;100796.69;;;4.89;98.90
13241;BME280;6687;47.790;7.322;2023-02-12T12:46:04;100798.13;;;5.32;96.93
13241;BME280;6687;47.790;7.322;2023-02-12T12:48:42;100791.72;;;5.24;96.93
13241;BME280;6687;47.790;7.322;2023-02-12T12:51:28;100790.00;;;5.24;97.25
13241;BME280;6687;47.790;7.322;2023-02-12T12:54:11;100777.78;;;5.53;96.38
13241;BME280;6687;47.790;7.322;2023-02-12T12:56:48;100784.47;;;5.49;97.20
13241;BME280;6687;47.790;7.322;2023-02-12T12:59:43;100778.56;;;5.68;93.97
13241;BME280;6687;47.790;7.322;2023-02-12T13:08:49;100766.63;;;5.87;93.55
13241;BME280;6687;47.790;7.322;2023-02-12T13:11:30;100764.59;;;6.14;88.75
13241;BME280;6687;47.790;7.322;2023-02-12T13:14:08;100766.38;;;6.15;90.43
13241;BME280;6687;47.790;7.322;2023-02-12T13:16:45;100764.44;;;6.11;90.81
13241;BME280;6687;47.790;7.322;2023-02-12T13:19:18;100767.81;;;6.28;89.17
13241;BME280;6687;47.790;7.322;2023-02-12T13:21:54;100766.78;;;6.24;90.40
13241;BME280;6687;47.790;7.322;2023-02-12T13:24:30;100766.72;;;6.59;86.44
13241;BME280;6687;47.790;7.322;2023-02-12T13:27:05;100766.41;;;6.52;84.89
13241;BME280;6687;47.790;7.322;2023-02-12T13:29:36;100758.06;;;6.56;85.64
13241;BME280;6687;47.790;7.322;2023-02-12T13:32:11;100756.44;;;6.78;82.19
13241;BME280;6687;47.790;7.322;2023-02-12T13:34:41;100766.63;;;6.75;83.70
13241;BME280;6687;47.790;7.322;2023-02-12T13:37:14;100754.22;;;6.86;82.58
13241;BME280;6687;47.790;7.322;2023-02-12T13:39:46;100758.19;;;6.97;80.00
13241;BME280;6687;47.790;7.322;2023-02-12T13:42:26;100755.88;;;7.03;79.74
13241;BME280;6687;47.790;7.322;2023-02-12T13:44:58;100754.06;;;7.01;79.20
13241;BME280;6687;47.790;7.322;2023-02-12T13:47:35;100754.31;;;6.87;80.88
13241;BME280;6687;47.790;7.322;2023-02-12T13:50:17;100749.31;;;6.90;83.97
13241;BME280;6687;47.790;7.322;2023-02-12T13:52:54;100755.69;;;6.99;82.93
13241;BME280;6687;47.790;7.322;2023-02-12T13:55:25;100749.97;;;7.06;81.64
13241;BME280;6687;47.790;7.322;2023-02-12T14:00:57;100748.25;;;7.24;79.52
13241;BME280;6687;47.790;7.322;2023-02-12T14:03:25;100746.72;;;7.29;78.22
13241;BME280;6687;47.790;7.322;2023-02-12T14:06:13;100754.31;;;7.46;76.38
13241;BME280;6687;47.790;7.322;2023-02-12T14:08:42;100746.53;;;7.44;79.62
13241;BME280;6687;47.790;7.322;2023-02-12T14:11:12;100745.63;;;7.44;78.71
13241;BME280;6687;47.790;7.322;2023-02-12T14:13:51;100749.81;;;7.61;76.70
13241;BME280;6687;47.790;7.322;2023-02-12T14:16:35;100749.00;;;7.62;76.17
13241;BME280;6687;47.790;7.322;2023-02-12T14:19:38;100745.69;;;7.65;75.17
13241;BME280;6687;47.790;7.322;2023-02-12T14:22:13;100744.44;;;7.76;75.16
13241;BME280;6687;47.790;7.322;2023-02-12T14:24:48;100751.97;;;7.71;76.01
13241;BME280;6687;47.790;7.322;2023-02-12T14:27:30;100748.94;;;7.82;73.70
13241;BME280;6687;47.790;7.322;2023-02-12T14:33:23;100746.84;;;7.92;75.41
13241;BME280;6687;47.790;7.322;2023-02-12T14:36:15;100747.59;;;7.90;76.50
13241;BME280;6687;47.790;7.322;2023-02-12T14:38:58;100745.28;;;7.96;78.18
13241;BME280;6687;47.790;7.322;2023-02-12T14:41:30;100740.59;;;8.08;75.02
13241;BME280;6687;47.790;7.322;2023-02-12T14:44:42;100747.47;;;8.08;76.36
13241;BME280;6687;47.790;7.322;2023-02-12T14:50:19;100754.81;;;8.20;75.26
13241;BME280;6687;47.790;7.322;2023-02-12T14:52:52;100747.06;;;8.20;78.33
13241;BME280;6687;47.790;7.322;2023-02-12T14:55:24;100750.47;;;8.19;77.20
13241;BME280;6687;47.790;7.322;2023-02-12T14:57:57;100748.31;;;8.29;76.74
13241;BME280;6687;47.790;7.322;2023-02-12T15:00:29;100754.00;;;8.21;78.60
13241;BME280;6687;47.790;7.322;2023-02-12T15:03:01;100745.72;;;8.29;76.44
13241;BME280;6687;47.790;7.322;2023-02-12T15:05:36;100740.38;;;8.25;76.98
13241;BME280;6687;47.790;7.322;2023-02-12T15:08:10;100746.31;;;8.43;78.77
13241;BME280;6687;47.790;7.322;2023-02-12T15:10:46;100747.94;;;8.41;76.00
13241;BME280;6687;47.790;7.322;2023-02-12T15:13:18;100751.47;;;8.43;77.09
13241;BME280;6687;47.790;7.322;2023-02-12T15:15:53;100753.34;;;8.47;75.97
13241;BME280;6687;47.790;7.322;2023-02-12T15:18:26;100746.53;;;8.49;76.91
13241;BME280;6687;47.790;7.322;2023-02-12T15:20:58;100746.63;;;8.51;76.20
13241;BME280;6687;47.790;7.322;2023-02-12T15:23:31;100751.84;;;8.52;76.44
13241;BME280;6687;47.790;7.322;2023-02-12T15:25:59;100751.97;;;8.55;77.39
13241;BME280;6687;47.790;7.322;2023-02-12T15:28:29;100750.19;;;8.54;76.51
13241;BME280;6687;47.790;7.322;2023-02-12T15:31:00;100748.63;;;8.58;76.69
13241;BME280;6687;47.790;7.322;2023-02-12T15:33:30;100744.41;;;8.60;76.82
13241;BME280;6687;47.790;7.322;2023-02-12T15:35:57;100743.75;;;8.66;75.65
13241;BME280;6687;47.790;7.322;2023-02-12T15:38:29;100748.03;;;8.65;75.51
13241;BME280;6687;47.790;7.322;2023-02-12T15:40:59;100747.38;;;8.71;75.76
13241;BME280;6687;47.790;7.322;2023-02-12T15:43:28;100748.09;;;8.67;76.92
13241;BME280;6687;47.790;7.322;2023-02-12T15:46:01;100749.03;;;8.69;76.16
13241;BME280;6687;47.790;7.322;2023-02-12T15:48:31;100746.44;;;8.69;75.70
13241;BME280;6687;47.790;7.322;2023-02-12T15:51:04;100748.09;;;8.67;75.77
13241;BME280;6687;47.790;7.322;2023-02-12T15:53:34;100743.84;;;8.69;76.02
13241;BME280;6687;47.790;7.322;2023-02-12T15:56:02;100738.69;;;8.69;76.06
13241;BME280;6687;47.790;7.322;2023-02-12T15:58:30;100749.03;;;8.69;75.90
13241;BME280;6687;47.790;7.322;2023-02-12T16:01:04;100744.78;;;8.71;75.82
13241;BME280;6687;47.790;7.322;2023-02-12T16:03:33;100746.44;;;8.69;75.77
13241;BME280;6687;47.790;7.322;2023-02-12T16:06:02;100752.44;;;8.68;77.05
13241;BME280;6687;47.790;7.322;2023-02-12T16:08:32;100740.47;;;8.70;75.70
13241;BME280;6687;47.790;7.322;2023-02-12T16:11:00;100738.59;;;8.66;76.04
13241;BME280;6687;47.790;7.322;2023-02-12T16:13:39;100738.47;;;8.63;75.50
13241;BME280;6687;47.790;7.322;2023-02-12T16:16:17;100739.16;;;8.59;76.06
13241;BME280;6687;47.790;7.322;2023-02-12T16:18:45;100736.59;;;8.59;76.47
13241;BME280;6687;47.790;7.322;2023-02-12T16:21:15;100728.03;;;8.60;78.42
13241;BME280;6687;47.790;7.322;2023-02-12T16:23:42;100729.91;;;8.64;77.22
13241;BME280;6687;47.790;7.322;2023-02-12T16:26:15;100724.53;;;8.59;76.42
13241;BME280;6687;47.790;7.322;2023-02-12T16:28:45;100728.44;;;8.48;79.32
13241;BME280;6687;47.790;7.322;2023-02-12T16:31:15;100729.16;;;8.45;78.25
13241;BME280;6687;47.790;7.322;2023-02-12T16:33:44;100729.06;;;8.42;77.84
13241;BME280;6687;47.790;7.322;2023-02-12T16:36:25;100726.16;;;8.34;77.54
13241;BME280;6687;47.790;7.322;2023-02-12T16:38:54;100727.97;;;8.37;77.96
13241;BME280;6687;47.790;7.322;2023-02-12T16:41:23;100726.53;;;8.23;78.41
13241;BME280;6687;47.790;7.322;2023-02-12T16:46:54;100732.47;;;8.20;78.60
13241;BME280;6687;47.790;7.322;2023-02-12T16:49:24;100725.28;;;8.13;78.84
13241;BME280;6687;47.790;7.322;2023-02-12T16:51:51;100729.69;;;8.15;78.99
13241;BME280;6687;47.790;7.322;2023-02-12T16:54:27;100733.16;;;7.95;79.34
13241;BME280;6687;47.790;7.322;2023-02-12T16:56:55;100734.25;;;8.00;79.43
13241;BME280;6687;47.790;7.322;2023-02-12T16:59:22;100740.50;;;7.86;79.64
13241;BME280;6687;47.790;7.322;2023-02-12T17:01:59;100741.75;;;7.94;79.50
13241;BME280;6687;47.790;7.322;2023-02-12T17:04:27;100745.41;;;7.80;80.96
13241;BME280;6687;47.790;7.322;2023-02-12T17:06:54;100737.69;;;7.80;80.36
13241;BME280;6687;47.790;7.322;2023-02-12T17:09:21;100745.97;;;7.92;82.41
13241;BME280;6687;47.790;7.322;2023-02-12T17:11:48;100743.94;;;7.85;82.09
13241;BME280;6687;47.790;7.322;2023-02-12T17:14:16;100752.66;;;7.67;81.15
13241;BME280;6687;47.790;7.322;2023-02-12T17:16:44;100753.50;;;7.66;81.12
13241;BME280;6687;47.790;7.322;2023-02-12T17:19:12;100758.66;;;7.66;81.23
13241;BME280;6687;47.790;7.322;2023-02-12T17:21:40;100757.22;;;7.53;81.04
13241;BME280;6687;47.790;7.322;2023-02-12T17:24:13;100755.69;;;7.37;81.83
13241;BME280;6687;47.790;7.322;2023-02-12T17:26:42;100752.16;;;7.35;81.43
13241;BME280;6687;47.790;7.322;2023-02-12T17:29:09;100754.53;;;7.31;82.09
13241;BME280;6687;47.790;7.322;2023-02-12T17:31:36;100757.91;;;7.30;82.22
13241;BME280;6687;47.790;7.322;2023-02-12T17:34:03;100752.97;;;7.15;82.72
13241;BME280;6687;47.790;7.322;2023-02-12T17:36:32;100751.41;;;7.19;82.53
13241;BME280;6687;47.790;7.322;2023-02-12T17:38:59;100753.09;;;7.18;83.00
13241;BME280;6687;47.790;7.322;2023-02-12T17:41:26;100754.41;;;7.08;83.05
13241;BME280;6687;47.790;7.322;2023-02-12T17:43:53;100760.56;;;7.31;83.57
13241;BME280;6687;47.790;7.322;2023-02-12T17:46:22;100758.75;;;7.29;84.22
13241;BME280;6687;47.790;7.322;2023-02-12T17:48:49;100753.66;;;7.30;84.64
13241;BME280;6687;47.790;7.322;2023-02-12T17:51:16;100759.88;;;7.16;84.06
13241;BME280;6687;47.790;7.322;2023-02-12T17:53:45;100756.22;;;7.11;84.19
13241;BME280;6687;47.790;7.322;2023-02-12T17:56:13;100761.38;;;7.11;85.58
13241;BME280;6687;47.790;7.322;2023-02-12T17:58:42;100752.81;;;7.12;85.47
13241;BME280;6687;47.790;7.322;2023-02-12T18:01:11;100756.69;;;7.02;84.82
13241;BME280;6687;47.790;7.322;2023-02-12T18:03:38;100755.44;;;6.94;84.45
13241;BME280;6687;47.790;7.322;2023-02-12T18:06:06;100759.09;;;6.80;84.42
13241;BME280;6687;47.790;7.322;2023-02-12T18:08:33;100762.91;;;6.88;84.30
13241;BME280;6687;47.790;7.322;2023-02-12T18:11:05;100766.63;;;6.75;83.99
13241;BME280;6687;47.790;7.322;2023-02-12T18:13:32;100769.31;;;6.78;84.47
13241;BME280;6687;47.790;7.322;2023-02-12T18:15:59;100773.13;;;6.67;84.09
13241;BME280;6687;47.790;7.322;2023-02-12T18:18:25;100771.13;;;6.61;83.98
13241;BME280;6687;47.790;7.322;2023-02-12T18:20:52;100768.69;;;6.46;83.90
13241;BME280;6687;47.790;7.322;2023-02-12T18:23:19;100765.31;;;6.47;83.70
13241;BME280;6687;47.790;7.322;2023-02-12T18:25:46;100766.06;;;6.45;85.26
13241;BME280;6687;47.790;7.322;2023-02-12T18:28:14;100770.19;;;6.23;84.52
13241;BME280;6687;47.790;7.322;2023-02-12T18:30:41;100770.03;;;6.20;85.45
13241;BME280;6687;47.790;7.322;2023-02-12T18:33:08;100770.31;;;6.26;85.43
13241;BME280;6687;47.790;7.322;2023-02-12T18:35:35;100776.78;;;6.18;85.24
13241;BME280;6687;47.790;7.322;2023-02-12T18:38:02;100780.63;;;6.26;84.87
13241;BME280;6687;47.790;7.322;2023-02-12T18:40:29;100781.28;;;6.22;84.87
13241;BME280;6687;47.790;7.322;2023-02-12T18:42:55;100782.22;;;6.24;85.74
13241;BME280;6687;47.790;7.322;2023-02-12T18:45:23;100786.28;;;6.19;86.63
13241;BME280;6687;47.790;7.322;2023-02-12T18:47:50;100787.81;;;6.15;86.10
13241;BME280;6687;47.790;7.322;2023-02-12T18:50:17;100778.97;;;6.10;86.05
13241;BME280;6687;47.790;7.322;2023-02-12T18:52:44;100787.06;;;5.84;86.33
13241;BME280;6687;47.790;7.322;2023-02-12T18:55:10;100776.81;;;5.67;85.94
13241;BME280;6687;47.790;7.322;2023-02-12T18:57:37;100780.75;;;5.61;86.77
13241;BME280;6687;47.790;7.322;2023-02-12T19:00:05;100786.44;;;5.55;87.40
13241;BME280;6687;47.790;7.322;2023-02-12T19:02:33;100780.59;;;5.57;87.70
13241;BME280;6687;47.790;7.322;2023-02-12T19:05:00;100783.09;;;5.56;87.95
13241;BME280;6687;47.790;7.322;2023-02-12T19:07:27;100776.34;;;5.58;88.18
13241;BME280;6687;47.790;7.322;2023-02-12T19:09:54;100772.00;;;5.41;88.66
13241;BME280;6687;47.790;7.322;2023-02-12T19:12:21;100770.91;;;5.35;89.42
13241;BME280;6687;47.790;7.322;2023-02-12T19:14:47;100769.44;;;5.24;90.19
13241;BME280;6687;47.790;7.322;2023-02-12T19:17:14;100777.06;;;5.23;91.51
13241;BME280;6687;47.790;7.322;2023-02-12T19:19:42;100770.09;;;5.20;91.61
13241;BME280;6687;47.790;7.322;2023-02-12T19:22:09;100764.78;;;5.17;92.60
13241;BME280;6687;47.790;7.322;2023-02-12T19:24:36;100768.97;;;5.15;93.31
13241;BME280;6687;47.790;7.322;2023-02-12T19:27:02;100771.28;;;5.10;93.86
13241;BME280;6687;47.790;7.322;2023-02-12T19:29:29;100765.66;;;5.01;94.93
13241;BME280;6687;47.790;7.322;2023-02-12T19:31:56;100767.59;;;5.05;95.41
13241;BME280;6687;47.790;7.322;2023-02-12T19:34:23;100763.81;;;5.15;96.07
13241;BME280;6687;47.790;7.322;2023-02-12T19:36:52;100770.09;;;5.20;96.05
13241;BME280;6687;47.790;7.322;2023-02-12T19:39:21;100761.34;;;5.16;95.91
13241;BME280;6687;47.790;7.322;2023-02-12T19:41:49;100763.25;;;5.21;95.86
13241;BME280;6687;47.790;7.322;2023-02-12T19:44:17;100754.91;;;5.25;95.59
13241;BME280;6687;47.790;7.322;2023-02-12T19:46:45;100767.84;;;5.10;96.97
13241;BME280;6687;47.790;7.322;2023-02-12T19:49:14;100759.72;;;5.18;96.51
13241;BME280;6687;47.790;7.322;2023-02-12T19:51:41;100759.19;;;5.24;96.74
13241;BME280;6687;47.790;7.322;2023-02-12T19:54:11;100763.53;;;5.25;97.10
13241;BME280;6687;47.790;7.322;2023-02-12T19:56:39;100765.59;;;5.16;97.57
13241;BME280;6687;47.790;7.322;2023-02-12T19:59:06;100773.94;;;5.12;97.50
13241;BME280;6687;47.790;7.322;2023-02-12T20:01:34;100772.16;;;5.11;97.50
13241;BME280;6687;47.790;7.322;2023-02-12T20:04:01;100771.53;;;5.15;97.86